< < Back
Terminal Aerodrome Forecast


Current Version              Previous Versions:   1  2  3  4  5  6  7  8  9  

Terminal Aerodrome Forecast

090
FTUS44 KMOB 270000 CCA
TAFPNS
TAF COR
KPNS 270016Z 2700/2724 36008KT P6SM SCT020
      TEMPO 2701/2703 P6SM BKN020
     FM270900 02010KT P6SM SCT020 SCT150=



Latest METAR

735
SAUS70 KWBC 271500 RRP
MTRPNS
METAR KPNS 271453Z 01010G16KT 10SM CLR 04/M01 A3038 RMK AO2 SLP289
T00441006 51016


USA.gov is the U.S. government's official web portal to all federal, state and local government web resources and services.